sensor_id;sensor_type;location;lat;lon;timestamp;P1;durP1;ratioP1;P2;durP2;ratioP2
75021;SDS011;63583;49.976;20.182;2022-10-22T00:00:09;26.52;;;14.63;;
75021;SDS011;63583;49.976;20.182;2022-10-22T00:02:57;26.55;;;15.63;;
75021;SDS011;63583;49.976;20.182;2022-10-22T00:05:23;21.75;;;15.07;;
75021;SDS011;63583;49.976;20.182;2022-10-22T00:07:49;25.17;;;14.82;;
75021;SDS011;63583;49.976;20.182;2022-10-22T00:10:14;28.52;;;14.75;;
75021;SDS011;63583;49.976;20.182;2022-10-22T00:12:42;25.48;;;15.73;;
75021;SDS011;63583;49.976;20.182;2022-10-22T00:15:07;25.30;;;14.93;;
75021;SDS011;63583;49.976;20.182;2022-10-22T00:17:35;25.75;;;15.52;;
75021;SDS011;63583;49.976;20.182;2022-10-22T00:20:01;29.48;;;16.05;;
75021;SDS011;63583;49.976;20.182;2022-10-22T00:22:26;25.70;;;14.88;;
75021;SDS011;63583;49.976;20.182;2022-10-22T00:24:52;24.58;;;15.18;;
75021;SDS011;63583;49.976;20.182;2022-10-22T00:27:18;28.45;;;16.13;;
75021;SDS011;63583;49.976;20.182;2022-10-22T00:29:44;30.63;;;16.80;;
75021;SDS011;63583;49.976;20.182;2022-10-22T00:32:10;28.40;;;15.48;;
75021;SDS011;63583;49.976;20.182;2022-10-22T00:34:35;30.02;;;16.23;;
75021;SDS011;63583;49.976;20.182;2022-10-22T00:37:01;30.80;;;16.02;;
75021;SDS011;63583;49.976;20.182;2022-10-22T00:39:27;26.50;;;16.83;;
75021;SDS011;63583;49.976;20.182;2022-10-22T00:41:54;28.90;;;15.98;;
75021;SDS011;63583;49.976;20.182;2022-10-22T00:53:13;29.52;;;17.73;;
75021;SDS011;63583;49.976;20.182;2022-10-22T00:55:42;29.83;;;17.50;;
75021;SDS011;63583;49.976;20.182;2022-10-22T00:58:10;28.23;;;17.73;;
75021;SDS011;63583;49.976;20.182;2022-10-22T01:00:37;32.00;;;17.77;;
75021;SDS011;63583;49.976;20.182;2022-10-22T01:03:03;29.73;;;16.77;;
75021;SDS011;63583;49.976;20.182;2022-10-22T01:05:30;32.10;;;18.05;;
75021;SDS011;63583;49.976;20.182;2022-10-22T01:08:04;27.83;;;17.42;;
75021;SDS011;63583;49.976;20.182;2022-10-22T01:16:21;31.05;;;18.00;;
75021;SDS011;63583;49.976;20.182;2022-10-22T01:21:40;26.77;;;16.70;;
75021;SDS011;63583;49.976;20.182;2022-10-22T01:24:14;26.98;;;16.38;;
75021;SDS011;63583;49.976;20.182;2022-10-22T01:32:05;27.08;;;16.83;;
75021;SDS011;63583;49.976;20.182;2022-10-22T01:34:35;32.42;;;18.15;;
75021;SDS011;63583;49.976;20.182;2022-10-22T01:37:04;27.33;;;17.60;;
75021;SDS011;63583;49.976;20.182;2022-10-22T01:39:31;31.85;;;18.75;;
75021;SDS011;63583;49.976;20.182;2022-10-22T01:41:59;32.47;;;18.40;;
75021;SDS011;63583;49.976;20.182;2022-10-22T01:44:32;34.13;;;19.63;;
75021;SDS011;63583;49.976;20.182;2022-10-22T01:47:06;29.10;;;17.80;;
75021;SDS011;63583;49.976;20.182;2022-10-22T01:52:34;28.65;;;17.75;;
75021;SDS011;63583;49.976;20.182;2022-10-22T02:01:14;32.45;;;18.65;;
75021;SDS011;63583;49.976;20.182;2022-10-22T02:03:44;32.67;;;19.20;;
75021;SDS011;63583;49.976;20.182;2022-10-22T02:06:25;32.40;;;18.65;;
75021;SDS011;63583;49.976;20.182;2022-10-22T02:08:53;30.15;;;17.80;;
75021;SDS011;63583;49.976;20.182;2022-10-22T02:11:20;32.03;;;19.35;;
75021;SDS011;63583;49.976;20.182;2022-10-22T02:13:52;30.38;;;18.88;;
75021;SDS011;63583;49.976;20.182;2022-10-22T02:16:26;31.85;;;18.15;;
75021;SDS011;63583;49.976;20.182;2022-10-22T02:18:57;28.70;;;17.92;;
75021;SDS011;63583;49.976;20.182;2022-10-22T02:21:26;29.38;;;16.98;;
75021;SDS011;63583;49.976;20.182;2022-10-22T02:23:52;31.48;;;16.52;;
75021;SDS011;63583;49.976;20.182;2022-10-22T02:26:23;33.75;;;18.15;;
75021;SDS011;63583;49.976;20.182;2022-10-22T02:29:10;31.25;;;16.67;;
75021;SDS011;63583;49.976;20.182;2022-10-22T02:34:06;34.00;;;17.00;;
75021;SDS011;63583;49.976;20.182;2022-10-22T02:36:36;28.88;;;16.63;;
75021;SDS011;63583;49.976;20.182;2022-10-22T02:39:03;29.92;;;15.55;;
75021;SDS011;63583;49.976;20.182;2022-10-22T02:41:32;27.77;;;15.82;;
75021;SDS011;63583;49.976;20.182;2022-10-22T02:43:58;28.38;;;14.55;;
75021;SDS011;63583;49.976;20.182;2022-10-22T02:46:24;27.13;;;15.02;;
75021;SDS011;63583;49.976;20.182;2022-10-22T02:48:50;27.35;;;15.20;;
75021;SDS011;63583;49.976;20.182;2022-10-22T02:51:15;27.25;;;15.38;;
75021;SDS011;63583;49.976;20.182;2022-10-22T02:53:41;28.73;;;15.05;;
75021;SDS011;63583;49.976;20.182;2022-10-22T02:56:07;22.48;;;13.88;;
75021;SDS011;63583;49.976;20.182;2022-10-22T02:58:33;25.17;;;14.15;;
75021;SDS011;63583;49.976;20.182;2022-10-22T03:00:59;25.60;;;15.23;;
75021;SDS011;63583;49.976;20.182;2022-10-22T03:03:25;22.63;;;14.15;;
75021;SDS011;63583;49.976;20.182;2022-10-22T03:05:50;24.25;;;13.82;;
75021;SDS011;63583;49.976;20.182;2022-10-22T03:08:16;24.60;;;14.13;;
75021;SDS011;63583;49.976;20.182;2022-10-22T03:10:42;23.70;;;14.13;;
75021;SDS011;63583;49.976;20.182;2022-10-22T03:13:09;28.92;;;16.02;;
75021;SDS011;63583;49.976;20.182;2022-10-22T03:15:34;25.05;;;13.70;;
75021;SDS011;63583;49.976;20.182;2022-10-22T03:18:00;26.73;;;15.27;;
75021;SDS011;63583;49.976;20.182;2022-10-22T03:20:26;24.63;;;12.77;;
75021;SDS011;63583;49.976;20.182;2022-10-22T03:22:52;24.13;;;13.75;;
75021;SDS011;63583;49.976;20.182;2022-10-22T03:25:21;22.05;;;12.30;;
75021;SDS011;63583;49.976;20.182;2022-10-22T03:27:49;21.90;;;13.00;;
75021;SDS011;63583;49.976;20.182;2022-10-22T03:30:17;27.02;;;15.45;;
75021;SDS011;63583;49.976;20.182;2022-10-22T03:32:43;31.02;;;17.38;;
75021;SDS011;63583;49.976;20.182;2022-10-22T03:35:09;29.75;;;15.75;;
75021;SDS011;63583;49.976;20.182;2022-10-22T03:37:34;30.13;;;16.92;;
75021;SDS011;63583;49.976;20.182;2022-10-22T03:40:02;30.50;;;18.63;;
75021;SDS011;63583;49.976;20.182;2022-10-22T03:42:29;31.88;;;17.95;;
75021;SDS011;63583;49.976;20.182;2022-10-22T03:44:55;31.20;;;16.55;;
75021;SDS011;63583;49.976;20.182;2022-10-22T03:47:20;25.10;;;15.43;;
75021;SDS011;63583;49.976;20.182;2022-10-22T03:49:49;30.85;;;17.40;;
75021;SDS011;63583;49.976;20.182;2022-10-22T03:52:16;31.15;;;15.65;;
75021;SDS011;63583;49.976;20.182;2022-10-22T03:54:42;28.45;;;16.70;;
75021;SDS011;63583;49.976;20.182;2022-10-22T03:57:08;27.60;;;15.85;;
75021;SDS011;63583;49.976;20.182;2022-10-22T03:59:38;25.52;;;14.40;;
75021;SDS011;63583;49.976;20.182;2022-10-22T04:02:09;24.50;;;15.23;;
75021;SDS011;63583;49.976;20.182;2022-10-22T04:04:36;29.42;;;16.90;;
75021;SDS011;63583;49.976;20.182;2022-10-22T04:07:02;28.13;;;16.17;;
75021;SDS011;63583;49.976;20.182;2022-10-22T04:09:32;26.90;;;15.57;;
75021;SDS011;63583;49.976;20.182;2022-10-22T04:11:59;29.17;;;16.02;;
75021;SDS011;63583;49.976;20.182;2022-10-22T04:14:25;28.10;;;14.77;;
75021;SDS011;63583;49.976;20.182;2022-10-22T04:16:50;29.25;;;16.15;;
75021;SDS011;63583;49.976;20.182;2022-10-22T04:19:16;23.02;;;14.07;;
75021;SDS011;63583;49.976;20.182;2022-10-22T04:21:42;26.63;;;15.57;;
75021;SDS011;63583;49.976;20.182;2022-10-22T04:24:09;25.75;;;15.32;;
75021;SDS011;63583;49.976;20.182;2022-10-22T04:26:34;29.55;;;14.95;;
75021;SDS011;63583;49.976;20.182;2022-10-22T04:29:00;25.25;;;14.70;;
75021;SDS011;63583;49.976;20.182;2022-10-22T04:31:26;25.20;;;14.05;;
75021;SDS011;63583;49.976;20.182;2022-10-22T04:33:55;26.63;;;14.45;;
75021;SDS011;63583;49.976;20.182;2022-10-22T04:36:23;22.38;;;13.18;;
75021;SDS011;63583;49.976;20.182;2022-10-22T04:38:54;25.92;;;13.57;;
75021;SDS011;63583;49.976;20.182;2022-10-22T04:41:23;23.40;;;13.77;;
75021;SDS011;63583;49.976;20.182;2022-10-22T04:43:54;25.15;;;14.55;;
75021;SDS011;63583;49.976;20.182;2022-10-22T04:46:21;25.25;;;13.32;;
75021;SDS011;63583;49.976;20.182;2022-10-22T04:48:48;26.70;;;15.07;;
75021;SDS011;63583;49.976;20.182;2022-10-22T04:51:16;30.33;;;16.70;;
75021;SDS011;63583;49.976;20.182;2022-10-22T04:53:43;32.28;;;17.63;;
75021;SDS011;63583;49.976;20.182;2022-10-22T04:56:11;30.80;;;17.15;;
75021;SDS011;63583;49.976;20.182;2022-10-22T04:58:45;31.10;;;17.65;;
75021;SDS011;63583;49.976;20.182;2022-10-22T05:01:22;30.88;;;17.00;;
75021;SDS011;63583;49.976;20.182;2022-10-22T05:03:56;30.83;;;17.00;;
75021;SDS011;63583;49.976;20.182;2022-10-22T05:06:24;28.35;;;17.60;;
75021;SDS011;63583;49.976;20.182;2022-10-22T05:08:54;30.95;;;17.83;;
75021;SDS011;63583;49.976;20.182;2022-10-22T05:11:22;30.77;;;17.67;;
75021;SDS011;63583;49.976;20.182;2022-10-22T05:13:50;28.63;;;16.02;;
75021;SDS011;63583;49.976;20.182;2022-10-22T05:16:16;26.73;;;16.42;;
75021;SDS011;63583;49.976;20.182;2022-10-22T05:18:42;26.98;;;15.48;;
75021;SDS011;63583;49.976;20.182;2022-10-22T05:21:10;32.10;;;16.25;;
75021;SDS011;63583;49.976;20.182;2022-10-22T05:23:37;27.77;;;16.63;;
75021;SDS011;63583;49.976;20.182;2022-10-22T05:26:04;26.92;;;16.33;;
75021;SDS011;63583;49.976;20.182;2022-10-22T05:28:31;27.15;;;15.82;;
75021;SDS011;63583;49.976;20.182;2022-10-22T05:30:58;25.65;;;14.10;;
75021;SDS011;63583;49.976;20.182;2022-10-22T05:33:26;25.80;;;15.00;;
75021;SDS011;63583;49.976;20.182;2022-10-22T05:35:52;26.92;;;15.13;;
75021;SDS011;63583;49.976;20.182;2022-10-22T05:38:18;26.60;;;15.43;;
75021;SDS011;63583;49.976;20.182;2022-10-22T05:40:44;27.13;;;16.27;;
75021;SDS011;63583;49.976;20.182;2022-10-22T05:43:10;29.77;;;17.90;;
75021;SDS011;63583;49.976;20.182;2022-10-22T05:45:39;28.65;;;13.93;;
75021;SDS011;63583;49.976;20.182;2022-10-22T05:48:06;32.65;;;18.00;;
75021;SDS011;63583;49.976;20.182;2022-10-22T05:50:35;34.78;;;20.17;;
75021;SDS011;63583;49.976;20.182;2022-10-22T05:53:02;32.67;;;18.17;;
75021;SDS011;63583;49.976;20.182;2022-10-22T05:55:28;30.27;;;17.67;;
75021;SDS011;63583;49.976;20.182;2022-10-22T05:57:54;29.08;;;17.90;;
75021;SDS011;63583;49.976;20.182;2022-10-22T06:00:20;31.65;;;17.30;;
75021;SDS011;63583;49.976;20.182;2022-10-22T06:02:49;29.50;;;16.92;;
75021;SDS011;63583;49.976;20.182;2022-10-22T06:05:16;30.35;;;17.65;;
75021;SDS011;63583;49.976;20.182;2022-10-22T06:07:41;29.17;;;16.55;;
75021;SDS011;63583;49.976;20.182;2022-10-22T06:10:14;30.67;;;17.83;;
75021;SDS011;63583;49.976;20.182;2022-10-22T06:12:42;31.08;;;18.60;;
75021;SDS011;63583;49.976;20.182;2022-10-22T06:15:10;28.77;;;16.58;;
75021;SDS011;63583;49.976;20.182;2022-10-22T06:17:37;29.45;;;16.35;;
75021;SDS011;63583;49.976;20.182;2022-10-22T06:20:03;31.50;;;16.48;;
75021;SDS011;63583;49.976;20.182;2022-10-22T06:22:29;29.48;;;16.55;;
75021;SDS011;63583;49.976;20.182;2022-10-22T06:24:54;26.35;;;15.75;;
75021;SDS011;63583;49.976;20.182;2022-10-22T06:27:20;30.25;;;17.42;;
75021;SDS011;63583;49.976;20.182;2022-10-22T06:29:46;34.97;;;18.60;;
75021;SDS011;63583;49.976;20.182;2022-10-22T06:32:12;32.08;;;17.02;;
75021;SDS011;63583;49.976;20.182;2022-10-22T06:34:38;30.40;;;17.80;;
75021;SDS011;63583;49.976;20.182;2022-10-22T06:37:04;29.48;;;16.67;;
75021;SDS011;63583;49.976;20.182;2022-10-22T06:39:29;30.85;;;16.40;;
75021;SDS011;63583;49.976;20.182;2022-10-22T06:41:55;21.73;;;13.82;;
75021;SDS011;63583;49.976;20.182;2022-10-22T06:44:21;24.42;;;14.52;;
75021;SDS011;63583;49.976;20.182;2022-10-22T06:46:50;21.45;;;13.77;;
75021;SDS011;63583;49.976;20.182;2022-10-22T06:49:17;20.98;;;11.65;;
75021;SDS011;63583;49.976;20.182;2022-10-22T06:51:44;19.15;;;11.63;;
75021;SDS011;63583;49.976;20.182;2022-10-22T06:54:10;26.20;;;13.45;;
75021;SDS011;63583;49.976;20.182;2022-10-22T06:56:36;20.42;;;12.48;;
75021;SDS011;63583;49.976;20.182;2022-10-22T06:59:02;19.20;;;12.15;;
75021;SDS011;63583;49.976;20.182;2022-10-22T07:01:29;21.67;;;12.95;;
75021;SDS011;63583;49.976;20.182;2022-10-22T07:03:56;29.83;;;15.60;;
75021;SDS011;63583;49.976;20.182;2022-10-22T07:06:23;26.33;;;13.85;;
75021;SDS011;63583;49.976;20.182;2022-10-22T07:08:50;17.65;;;11.65;;
75021;SDS011;63583;49.976;20.182;2022-10-22T07:11:18;25.20;;;13.60;;
75021;SDS011;63583;49.976;20.182;2022-10-22T07:13:48;22.90;;;14.25;;
75021;SDS011;63583;49.976;20.182;2022-10-22T07:16:15;24.35;;;13.85;;
75021;SDS011;63583;49.976;20.182;2022-10-22T07:18:41;23.27;;;13.25;;
75021;SDS011;63583;49.976;20.182;2022-10-22T07:21:08;22.35;;;12.18;;
75021;SDS011;63583;49.976;20.182;2022-10-22T07:23:35;29.35;;;14.57;;
75021;SDS011;63583;49.976;20.182;2022-10-22T07:26:01;25.63;;;16.17;;
75021;SDS011;63583;49.976;20.182;2022-10-22T07:28:27;28.38;;;17.65;;
75021;SDS011;63583;49.976;20.182;2022-10-22T07:30:54;30.30;;;18.45;;
75021;SDS011;63583;49.976;20.182;2022-10-22T07:33:20;29.92;;;16.98;;
75021;SDS011;63583;49.976;20.182;2022-10-22T07:35:45;28.48;;;16.63;;
75021;SDS011;63583;49.976;20.182;2022-10-22T07:38:11;30.73;;;18.38;;
75021;SDS011;63583;49.976;20.182;2022-10-22T07:40:37;26.58;;;16.02;;
75021;SDS011;63583;49.976;20.182;2022-10-22T07:43:03;30.08;;;16.85;;
75021;SDS011;63583;49.976;20.182;2022-10-22T07:45:29;32.13;;;17.15;;
75021;SDS011;63583;49.976;20.182;2022-10-22T07:47:54;29.05;;;17.58;;
75021;SDS011;63583;49.976;20.182;2022-10-22T07:50:20;31.63;;;17.52;;
75021;SDS011;63583;49.976;20.182;2022-10-22T07:52:46;29.77;;;17.85;;
75021;SDS011;63583;49.976;20.182;2022-10-22T07:55:12;24.80;;;15.23;;
75021;SDS011;63583;49.976;20.182;2022-10-22T07:57:38;28.48;;;17.80;;
75021;SDS011;63583;49.976;20.182;2022-10-22T08:00:05;33.65;;;20.33;;
75021;SDS011;63583;49.976;20.182;2022-10-22T08:02:31;34.65;;;19.17;;
75021;SDS011;63583;49.976;20.182;2022-10-22T08:04:57;32.72;;;19.40;;
75021;SDS011;63583;49.976;20.182;2022-10-22T08:07:23;37.55;;;20.48;;
75021;SDS011;63583;49.976;20.182;2022-10-22T08:09:49;31.58;;;19.17;;
75021;SDS011;63583;49.976;20.182;2022-10-22T08:12:15;28.40;;;16.67;;
75021;SDS011;63583;49.976;20.182;2022-10-22T08:14:41;30.23;;;18.05;;
75021;SDS011;63583;49.976;20.182;2022-10-22T08:17:07;26.40;;;16.25;;
75021;SDS011;63583;49.976;20.182;2022-10-22T08:19:32;30.27;;;15.82;;
75021;SDS011;63583;49.976;20.182;2022-10-22T08:22:00;25.95;;;16.35;;
75021;SDS011;63583;49.976;20.182;2022-10-22T08:24:26;27.08;;;16.20;;
75021;SDS011;63583;49.976;20.182;2022-10-22T08:26:52;23.58;;;15.10;;
75021;SDS011;63583;49.976;20.182;2022-10-22T08:29:20;21.88;;;14.10;;
75021;SDS011;63583;49.976;20.182;2022-10-22T08:31:47;24.70;;;14.60;;
75021;SDS011;63583;49.976;20.182;2022-10-22T08:34:14;20.10;;;13.15;;
75021;SDS011;63583;49.976;20.182;2022-10-22T08:36:40;25.33;;;14.90;;
75021;SDS011;63583;49.976;20.182;2022-10-22T08:39:06;30.02;;;17.45;;
75021;SDS011;63583;49.976;20.182;2022-10-22T08:41:33;26.70;;;16.63;;
75021;SDS011;63583;49.976;20.182;2022-10-22T08:47:12;28.63;;;17.15;;
75021;SDS011;63583;49.976;20.182;2022-10-22T08:49:48;28.88;;;16.80;;
75021;SDS011;63583;49.976;20.182;2022-10-22T08:52:16;29.83;;;17.35;;
75021;SDS011;63583;49.976;20.182;2022-10-22T08:54:46;26.48;;;16.25;;
75021;SDS011;63583;49.976;20.182;2022-10-22T09:00:08;29.52;;;17.88;;
75021;SDS011;63583;49.976;20.182;2022-10-22T09:02:42;31.25;;;18.25;;
75021;SDS011;63583;49.976;20.182;2022-10-22T09:08:19;28.75;;;19.20;;
75021;SDS011;63583;49.976;20.182;2022-10-22T09:10:57;28.77;;;17.55;;
75021;SDS011;63583;49.976;20.182;2022-10-22T09:13:30;32.33;;;19.00;;
75021;SDS011;63583;49.976;20.182;2022-10-22T09:15:58;29.83;;;18.25;;
75021;SDS011;63583;49.976;20.182;2022-10-22T09:21:47;32.17;;;19.10;;
75021;SDS011;63583;49.976;20.182;2022-10-22T09:27:18;29.02;;;17.15;;
75021;SDS011;63583;49.976;20.182;2022-10-22T09:29:48;27.63;;;15.88;;
75021;SDS011;63583;49.976;20.182;2022-10-22T09:32:14;25.48;;;16.50;;
75021;SDS011;63583;49.976;20.182;2022-10-22T09:34:42;29.67;;;18.67;;
75021;SDS011;63583;49.976;20.182;2022-10-22T09:37:09;29.45;;;17.02;;
75021;SDS011;63583;49.976;20.182;2022-10-22T09:39:45;32.55;;;17.23;;
75021;SDS011;63583;49.976;20.182;2022-10-22T09:42:16;28.38;;;17.95;;
75021;SDS011;63583;49.976;20.182;2022-10-22T09:44:44;30.48;;;19.00;;
75021;SDS011;63583;49.976;20.182;2022-10-22T09:52:45;36.05;;;22.50;;
75021;SDS011;63583;49.976;20.182;2022-10-22T09:55:20;38.05;;;23.65;;
75021;SDS011;63583;49.976;20.182;2022-10-22T09:57:55;37.80;;;22.13;;
75021;SDS011;63583;49.976;20.182;2022-10-22T10:00:24;41.33;;;23.42;;
75021;SDS011;63583;49.976;20.182;2022-10-22T10:02:55;32.22;;;20.90;;
75021;SDS011;63583;49.976;20.182;2022-10-22T10:05:32;30.23;;;20.23;;
75021;SDS011;63583;49.976;20.182;2022-10-22T10:08:06;35.95;;;22.10;;
75021;SDS011;63583;49.976;20.182;2022-10-22T10:10:44;31.17;;;19.77;;
75021;SDS011;63583;49.976;20.182;2022-10-22T10:16:04;26.45;;;17.05;;
75021;SDS011;63583;49.976;20.182;2022-10-22T10:22:23;29.27;;;16.40;;
75021;SDS011;63583;49.976;20.182;2022-10-22T10:38:20;28.73;;;16.42;;
75021;SDS011;63583;49.976;20.182;2022-10-22T10:40:49;24.85;;;14.63;;
75021;SDS011;63583;49.976;20.182;2022-10-22T10:46:33;20.95;;;12.60;;
75021;SDS011;63583;49.976;20.182;2022-10-22T10:49:23;20.60;;;13.10;;
75021;SDS011;63583;49.976;20.182;2022-10-22T10:52:01;21.27;;;12.77;;
75021;SDS011;63583;49.976;20.182;2022-10-22T10:57:45;21.67;;;12.57;;
75021;SDS011;63583;49.976;20.182;2022-10-22T11:00:20;22.50;;;14.10;;
75021;SDS011;63583;49.976;20.182;2022-10-22T11:05:29;20.63;;;12.77;;
75021;SDS011;63583;49.976;20.182;2022-10-22T11:08:04;26.35;;;14.27;;
75021;SDS011;63583;49.976;20.182;2022-10-22T11:10:38;23.17;;;14.57;;
75021;SDS011;63583;49.976;20.182;2022-10-22T11:18:53;22.00;;;14.77;;
75021;SDS011;63583;49.976;20.182;2022-10-22T11:21:28;24.85;;;15.45;;
75021;SDS011;63583;49.976;20.182;2022-10-22T11:26:47;24.15;;;14.57;;
75021;SDS011;63583;49.976;20.182;2022-10-22T11:29:20;26.75;;;14.80;;
75021;SDS011;63583;49.976;20.182;2022-10-22T11:31:50;25.58;;;15.85;;
75021;SDS011;63583;49.976;20.182;2022-10-22T11:34:19;27.17;;;16.73;;
75021;SDS011;63583;49.976;20.182;2022-10-22T11:36:50;23.48;;;14.25;;
75021;SDS011;63583;49.976;20.182;2022-10-22T11:42:16;28.20;;;16.50;;
75021;SDS011;63583;49.976;20.182;2022-10-22T11:44:45;23.50;;;15.93;;
75021;SDS011;63583;49.976;20.182;2022-10-22T11:49:58;29.92;;;16.55;;
75021;SDS011;63583;49.976;20.182;2022-10-22T11:52:48;31.42;;;17.25;;
75021;SDS011;63583;49.976;20.182;2022-10-22T11:55:42;41.00;;;21.65;;
75021;SDS011;63583;49.976;20.182;2022-10-22T12:08:30;27.65;;;17.15;;
75021;SDS011;63583;49.976;20.182;2022-10-22T12:17:23;31.20;;;19.23;;
75021;SDS011;63583;49.976;20.182;2022-10-22T12:19:36;26.77;;;17.05;;
75021;SDS011;63583;49.976;20.182;2022-10-22T12:22:14;26.35;;;16.65;;
75021;SDS011;63583;49.976;20.182;2022-10-22T12:24:43;30.88;;;18.88;;
75021;SDS011;63583;49.976;20.182;2022-10-22T12:27:18;25.38;;;16.48;;
75021;SDS011;63583;49.976;20.182;2022-10-22T12:29:48;31.35;;;18.55;;
75021;SDS011;63583;49.976;20.182;2022-10-22T12:32:17;32.90;;;20.88;;
75021;SDS011;63583;49.976;20.182;2022-10-22T12:34:47;35.47;;;20.80;;
75021;SDS011;63583;49.976;20.182;2022-10-22T12:37:15;33.75;;;21.17;;
75021;SDS011;63583;49.976;20.182;2022-10-22T12:39:42;37.00;;;21.15;;
75021;SDS011;63583;49.976;20.182;2022-10-22T12:42:11;35.53;;;21.83;;
75021;SDS011;63583;49.976;20.182;2022-10-22T12:44:42;35.75;;;23.30;;
75021;SDS011;63583;49.976;20.182;2022-10-22T12:47:15;40.17;;;22.35;;
75021;SDS011;63583;49.976;20.182;2022-10-22T12:49:44;38.55;;;20.77;;
75021;SDS011;63583;49.976;20.182;2022-10-22T12:52:13;32.08;;;19.13;;
75021;SDS011;63583;49.976;20.182;2022-10-22T12:54:44;28.33;;;17.05;;
75021;SDS011;63583;49.976;20.182;2022-10-22T12:57:12;29.05;;;18.60;;
75021;SDS011;63583;49.976;20.182;2022-10-22T12:59:40;28.80;;;18.70;;
75021;SDS011;63583;49.976;20.182;2022-10-22T13:02:24;44.53;;;24.65;;
75021;SDS011;63583;49.976;20.182;2022-10-22T13:08:06;51.03;;;33.72;;
75021;SDS011;63583;49.976;20.182;2022-10-22T13:10:35;108.70;;;72.55;;
75021;SDS011;63583;49.976;20.182;2022-10-22T13:13:03;67.78;;;46.28;;
75021;SDS011;63583;49.976;20.182;2022-10-22T13:18:19;34.58;;;20.90;;
75021;SDS011;63583;49.976;20.182;2022-10-22T13:23:26;33.45;;;18.83;;
75021;SDS011;63583;49.976;20.182;2022-10-22T13:26:16;30.48;;;18.40;;
75021;SDS011;63583;49.976;20.182;2022-10-22T13:28:42;48.88;;;27.42;;
75021;SDS011;63583;49.976;20.182;2022-10-22T13:31:15;49.55;;;29.48;;
75021;SDS011;63583;49.976;20.182;2022-10-22T13:33:43;34.83;;;19.73;;
75021;SDS011;63583;49.976;20.182;2022-10-22T13:36:14;32.92;;;19.48;;
75021;SDS011;63583;49.976;20.182;2022-10-22T13:38:41;27.45;;;16.77;;
75021;SDS011;63583;49.976;20.182;2022-10-22T13:41:21;29.08;;;18.63;;
75021;SDS011;63583;49.976;20.182;2022-10-22T13:43:47;27.20;;;19.17;;
75021;SDS011;63583;49.976;20.182;2022-10-22T13:46:13;30.05;;;19.52;;
75021;SDS011;63583;49.976;20.182;2022-10-22T13:48:38;30.60;;;20.02;;
75021;SDS011;63583;49.976;20.182;2022-10-22T13:51:06;33.53;;;21.23;;
75021;SDS011;63583;49.976;20.182;2022-10-22T13:53:41;32.45;;;20.67;;
75021;SDS011;63583;49.976;20.182;2022-10-22T13:56:13;35.25;;;22.30;;
75021;SDS011;63583;49.976;20.182;2022-10-22T13:58:40;46.22;;;28.35;;
75021;SDS011;63583;49.976;20.182;2022-10-22T14:01:10;47.90;;;27.05;;
75021;SDS011;63583;49.976;20.182;2022-10-22T14:03:43;39.08;;;22.40;;
75021;SDS011;63583;49.976;20.182;2022-10-22T14:06:13;43.10;;;27.20;;
75021;SDS011;63583;49.976;20.182;2022-10-22T14:08:41;36.22;;;24.80;;
75021;SDS011;63583;49.976;20.182;2022-10-22T14:11:10;35.42;;;22.02;;
75021;SDS011;63583;49.976;20.182;2022-10-22T14:13:36;32.20;;;21.27;;
75021;SDS011;63583;49.976;20.182;2022-10-22T14:16:07;32.42;;;21.05;;
75021;SDS011;63583;49.976;20.182;2022-10-22T14:18:43;35.00;;;23.05;;
75021;SDS011;63583;49.976;20.182;2022-10-22T14:21:09;42.65;;;25.60;;
75021;SDS011;63583;49.976;20.182;2022-10-22T14:23:38;33.85;;;21.35;;
75021;SDS011;63583;49.976;20.182;2022-10-22T14:26:05;44.70;;;28.83;;
75021;SDS011;63583;49.976;20.182;2022-10-22T14:28:32;44.75;;;28.52;;
75021;SDS011;63583;49.976;20.182;2022-10-22T14:30:59;46.92;;;27.70;;
75021;SDS011;63583;49.976;20.182;2022-10-22T14:33:31;42.03;;;25.83;;
75021;SDS011;63583;49.976;20.182;2022-10-22T14:35:58;49.50;;;28.85;;
75021;SDS011;63583;49.976;20.182;2022-10-22T14:38:24;54.20;;;31.40;;
75021;SDS011;63583;49.976;20.182;2022-10-22T14:40:51;59.05;;;34.72;;
75021;SDS011;63583;49.976;20.182;2022-10-22T14:43:20;53.85;;;33.95;;
75021;SDS011;63583;49.976;20.182;2022-10-22T14:45:48;56.83;;;34.17;;
75021;SDS011;63583;49.976;20.182;2022-10-22T14:48:15;61.80;;;37.90;;
75021;SDS011;63583;49.976;20.182;2022-10-22T14:50:42;61.10;;;36.20;;
75021;SDS011;63583;49.976;20.182;2022-10-22T14:53:09;51.90;;;32.13;;
75021;SDS011;63583;49.976;20.182;2022-10-22T14:55:55;52.05;;;31.27;;
75021;SDS011;63583;49.976;20.182;2022-10-22T14:58:23;52.25;;;32.38;;
75021;SDS011;63583;49.976;20.182;2022-10-22T15:00:49;57.13;;;34.55;;
75021;SDS011;63583;49.976;20.182;2022-10-22T15:03:15;55.72;;;32.92;;
75021;SDS011;63583;49.976;20.182;2022-10-22T15:05:42;58.30;;;35.28;;
75021;SDS011;63583;49.976;20.182;2022-10-22T15:08:09;57.15;;;36.90;;
75021;SDS011;63583;49.976;20.182;2022-10-22T15:10:36;56.55;;;32.88;;
75021;SDS011;63583;49.976;20.182;2022-10-22T15:13:01;58.47;;;34.08;;
75021;SDS011;63583;49.976;20.182;2022-10-22T15:15:27;56.25;;;33.33;;
75021;SDS011;63583;49.976;20.182;2022-10-22T15:17:53;59.45;;;33.30;;
75021;SDS011;63583;49.976;20.182;2022-10-22T15:20:19;58.38;;;34.83;;
75021;SDS011;63583;49.976;20.182;2022-10-22T15:22:44;59.97;;;35.42;;
75021;SDS011;63583;49.976;20.182;2022-10-22T15:25:11;61.05;;;36.08;;
75021;SDS011;63583;49.976;20.182;2022-10-22T15:27:38;60.72;;;36.65;;
75021;SDS011;63583;49.976;20.182;2022-10-22T15:30:04;62.03;;;35.65;;
75021;SDS011;63583;49.976;20.182;2022-10-22T15:32:31;59.83;;;38.58;;
75021;SDS011;63583;49.976;20.182;2022-10-22T15:34:58;56.90;;;35.28;;
75021;SDS011;63583;49.976;20.182;2022-10-22T15:37:25;59.45;;;36.67;;
75021;SDS011;63583;49.976;20.182;2022-10-22T15:39:51;60.15;;;35.10;;
75021;SDS011;63583;49.976;20.182;2022-10-22T15:42:17;52.08;;;32.80;;
75021;SDS011;63583;49.976;20.182;2022-10-22T15:44:43;55.10;;;32.10;;
75021;SDS011;63583;49.976;20.182;2022-10-22T15:47:09;53.78;;;31.63;;
75021;SDS011;63583;49.976;20.182;2022-10-22T15:49:37;63.33;;;38.85;;
75021;SDS011;63583;49.976;20.182;2022-10-22T15:52:04;66.68;;;35.20;;
75021;SDS011;63583;49.976;20.182;2022-10-22T15:54:34;54.35;;;32.08;;
75021;SDS011;63583;49.976;20.182;2022-10-22T15:57:00;54.35;;;33.00;;
75021;SDS011;63583;49.976;20.182;2022-10-22T15:59:28;51.72;;;30.17;;
75021;SDS011;63583;49.976;20.182;2022-10-22T16:01:54;57.22;;;33.60;;
75021;SDS011;63583;49.976;20.182;2022-10-22T16:04:19;95.40;;;55.55;;
75021;SDS011;63583;49.976;20.182;2022-10-22T16:06:46;62.72;;;37.70;;
75021;SDS011;63583;49.976;20.182;2022-10-22T16:09:15;70.97;;;40.55;;
75021;SDS011;63583;49.976;20.182;2022-10-22T16:14:11;60.20;;;36.58;;
75021;SDS011;63583;49.976;20.182;2022-10-22T16:16:41;62.33;;;34.58;;
75021;SDS011;63583;49.976;20.182;2022-10-22T16:19:11;53.63;;;32.40;;
75021;SDS011;63583;49.976;20.182;2022-10-22T16:21:38;55.88;;;33.28;;